Time;durP1;ratioP1;P1;durP2;ratioP2;P2;SDS_P1;SDS_P2;PMS_P1;PMS_P2;Temp;Humidity;BMP_temperature;BMP_pressure;BME280_temperature;BME280_humidity;BME280_pressure;Samples;Min_cycle;Max_cycle;Signal;HPM_P1;HPM_P2
2022/05/13 00:01:10;;;;;;;9.10;4.93;;;;;12.60;101227.00;;;;4946128;29;20342;-68
2022/05/13 00:03:57;;;;;;;6.03;4.60;;;;;12.40;101250.00;;;;4947179;29;20606;-69
2022/05/13 00:06:43;;;;;;;6.10;4.90;;;;;12.60;101261.00;;;;4945714;29;20216;-67
2022/05/13 00:12:34;;;;;;;7.60;4.73;;;;;12.30;101251.00;;;;4942186;29;20216;-68
2022/05/13 00:15:24;;;;;;;6.17;4.73;;;;;12.30;101245.00;;;;4944054;29;20360;-67
2022/05/13 00:18:10;;;;;;;5.37;4.87;;;;;12.30;101244.00;;;;4942815;29;20371;-69
2022/05/13 00:20:58;;;;;;;5.50;4.57;;;;;12.20;101251.00;;;;4948996;29;20265;-67
2022/05/13 00:23:44;;;;;;;5.87;4.90;;;;;12.20;101240.00;;;;4948459;29;20301;-68
2022/05/13 00:26:32;;;;;;;6.10;4.50;;;;;12.10;101247.00;;;;4947497;29;20732;-69
2022/05/13 00:29:18;;;;;;;6.73;5.00;;;;;12.00;101235.00;;;;4948900;29;20592;-68
2022/05/13 00:32:06;;;;;;;6.00;4.50;;;;;12.00;101236.00;;;;4941326;29;20245;-69
2022/05/13 00:34:52;;;;;;;9.23;4.83;;;;;12.00;101243.00;;;;4948636;29;20743;-70
2022/05/13 00:37:38;;;;;;;6.07;4.63;;;;;11.90;101233.00;;;;4948647;29;20215;-69
2022/05/13 00:40:24;;;;;;;6.97;4.60;;;;;11.90;101231.00;;;;4948448;29;20231;-67
2022/05/13 00:43:14;;;;;;;5.80;4.80;;;;;11.80;101231.00;;;;4947174;29;20994;-68
2022/05/13 00:46:00;;;;;;;5.17;4.63;;;;;11.80;101229.00;;;;4946983;29;20402;-70
2022/05/13 00:48:53;;;;;;;7.30;5.13;;;;;11.70;101223.00;;;;4945865;29;20951;-66
2022/05/13 00:51:42;;;;;;;6.50;4.67;;;;;11.70;101223.00;;;;4947212;29;20224;-69
2022/05/13 00:54:30;;;;;;;5.03;4.47;;;;;11.60;101225.00;;;;4945045;29;20243;-66
2022/05/13 00:57:16;;;;;;;7.57;5.20;;;;;11.60;101220.00;;;;4946400;29;20220;-70
2022/05/13 01:00:08;;;;;;;5.70;4.70;;;;;11.50;101223.00;;;;4947638;29;20260;-69
2022/05/13 01:02:55;;;;;;;5.67;4.53;;;;;11.40;101213.00;;;;4941933;29;20223;-68
2022/05/13 01:05:45;;;;;;;7.00;4.23;;;;;11.50;101214.00;;;;4948219;29;20236;-68
2022/05/13 01:08:33;;;;;;;6.03;4.50;;;;;11.40;101212.00;;;;4947590;28;20259;-68
2022/05/13 01:11:23;;;;;;;4.43;4.03;;;;;11.30;101222.00;;;;4942307;29;20295;-68
2022/05/13 01:14:15;;;;;;;6.20;4.83;;;;;11.50;101213.00;;;;4943690;29;20235;-68
2022/05/13 01:20:31;;;;;;;6.17;4.10;;;;;11.20;101216.00;;;;4948108;29;20715;-68
2022/05/13 01:23:22;;;;;;;7.37;4.33;;;;;11.30;101212.00;;;;4941582;29;20271;-69
2022/05/13 01:26:13;;;;;;;7.30;4.43;;;;;11.30;101209.00;;;;4940352;29;20240;-68
2022/05/13 01:29:01;;;;;;;4.73;4.00;;;;;11.20;101209.00;;;;4957382;28;20296;-70
2022/05/13 01:31:47;;;;;;;6.47;4.40;;;;;11.10;101210.00;;;;4955180;28;20274;-68
2022/05/13 01:34:33;;;;;;;6.27;3.80;;;;;11.20;101209.00;;;;4947663;29;20244;-69
2022/05/13 01:37:20;;;;;;;5.50;3.57;;;;;11.10;101204.00;;;;4949298;28;20218;-68
2022/05/13 01:40:09;;;;;;;4.93;3.80;;;;;11.00;101206.00;;;;4939873;29;20326;-69
2022/05/13 01:42:56;;;;;;;4.00;3.60;;;;;11.00;101202.00;;;;4947567;29;20247;-69
2022/05/13 01:45:43;;;;;;;4.97;4.07;;;;;11.10;101210.00;;;;4954721;28;20239;-67
2022/05/13 01:48:29;;;;;;;7.63;3.80;;;;;11.00;101203.00;;;;4948167;29;20299;-70
2022/05/13 01:51:16;;;;;;;9.57;4.20;;;;;11.00;101203.00;;;;4941563;29;20311;-68
2022/05/13 01:54:03;;;;;;;4.33;3.67;;;;;10.90;101204.00;;;;4947412;29;20255;-69
2022/05/13 01:56:50;;;;;;;5.57;3.57;;;;;10.80;101202.00;;;;4947280;29;20211;-67
2022/05/13 01:59:37;;;;;;;4.10;3.33;;;;;10.90;101196.00;;;;4947772;29;20449;-68
2022/05/13 02:02:23;;;;;;;3.77;3.23;;;;;10.70;101196.00;;;;4950871;28;20236;-71
2022/05/13 02:05:08;;;;;;;5.97;3.50;;;;;10.70;101191.00;;;;4947613;29;20240;-69
2022/05/13 02:07:54;;;;;;;5.13;3.80;;;;;10.80;101192.00;;;;4947625;29;20222;-66
2022/05/13 02:10:41;;;;;;;3.73;3.10;;;;;10.70;101192.00;;;;4947750;29;20235;-67
2022/05/13 02:13:29;;;;;;;6.27;4.00;;;;;10.70;101199.00;;;;4939804;29;20215;-69
2022/05/13 02:16:15;;;;;;;5.73;3.03;;;;;10.60;101197.00;;;;4940910;29;20565;-68
2022/05/13 02:19:02;;;;;;;5.40;3.30;;;;;10.60;101202.00;;;;4946951;28;20220;-68
2022/05/13 02:21:48;;;;;;;3.30;3.00;;;;;10.60;101207.00;;;;4951056;29;20692;-68
2022/05/13 02:24:34;;;;;;;6.93;4.70;;;;;10.50;101200.00;;;;4950136;29;20245;-71
2022/05/13 02:27:20;;;;;;;4.20;2.83;;;;;10.60;101207.00;;;;4945342;29;20207;-66
2022/05/13 02:30:10;;;;;;;4.27;2.97;;;;;10.40;101206.00;;;;4951342;29;20303;-69
2022/05/13 02:32:58;;;;;;;4.10;3.37;;;;;10.30;101201.00;;;;4949381;29;20219;-69
2022/05/13 02:35:44;;;;;;;3.80;2.80;;;;;10.20;101208.00;;;;4944423;28;20968;-70
2022/05/13 02:38:31;;;;;;;3.13;2.80;;;;;10.30;101213.00;;;;4944007;29;20367;-71
2022/05/13 02:41:17;;;;;;;3.17;2.87;;;;;10.30;101201.00;;;;4944042;29;20603;-66
2022/05/13 02:44:04;;;;;;;3.93;2.80;;;;;10.20;101202.00;;;;4948623;29;20210;-68
2022/05/13 02:46:55;;;;;;;5.13;2.60;;;;;10.20;101207.00;;;;4950570;29;20216;-68
2022/05/13 02:49:42;;;;;;;3.13;2.60;;;;;10.10;101207.00;;;;4950836;29;20897;-70
2022/05/13 02:52:28;;;;;;;6.97;3.30;;;;;10.10;101207.00;;;;4939514;29;20272;-70
2022/05/13 02:55:16;;;;;;;3.57;3.00;;;;;10.10;101218.00;;;;4943564;29;20232;-69
2022/05/13 02:58:04;;;;;;;3.60;2.53;;;;;10.00;101205.00;;;;4950616;29;20818;-68
2022/05/13 03:00:50;;;;;;;5.33;2.80;;;;;10.00;101210.00;;;;4956153;28;20267;-68
2022/05/13 03:03:40;;;;;;;3.27;2.83;;;;;10.00;101177.00;;;;4950798;28;20218;-67
2022/05/13 03:06:27;;;;;;;4.47;2.70;;;;;10.00;101195.00;;;;4947182;29;20217;-67
2022/05/13 03:09:13;;;;;;;3.70;2.47;;;;;10.10;101194.00;;;;4950107;28;20217;-68
2022/05/13 03:12:00;;;;;;;3.67;2.40;;;;;9.90;101187.00;;;;4950331;29;20234;-69
2022/05/13 03:14:46;;;;;;;2.70;2.07;;;;;10.00;101192.00;;;;4950525;29;20237;-68
2022/05/13 03:17:32;;;;;;;5.30;2.43;;;;;10.00;101183.00;;;;4949675;28;20714;-68
2022/05/13 03:20:22;;;;;;;3.30;2.60;;;;;9.90;101181.00;;;;4943828;29;20215;-70
2022/05/13 03:23:10;;;;;;;5.80;2.67;;;;;9.90;101179.00;;;;4949638;29;20229;-69
2022/05/13 03:25:57;;;;;;;5.97;2.90;;;;;9.80;101183.00;;;;4950029;29;20238;-68
2022/05/13 03:28:43;;;;;;;3.43;2.60;;;;;9.70;101172.00;;;;4950229;29;20302;-69
2022/05/13 03:31:31;;;;;;;2.87;2.50;;;;;9.80;101173.00;;;;4943980;28;20222;-69
2022/05/13 03:34:18;;;;;;;5.20;2.27;;;;;9.80;101176.00;;;;4945791;28;20249;-69
2022/05/13 03:37:06;;;;;;;4.63;2.97;;;;;9.80;101166.00;;;;4956260;28;20210;-69
2022/05/13 03:39:52;;;;;;;5.60;2.90;;;;;9.80;101184.00;;;;4949479;29;20229;-67
2022/05/13 03:42:39;;;;;;;3.60;2.67;;;;;9.80;101173.00;;;;4946503;29;20591;-69
2022/05/13 03:45:26;;;;;;;4.60;2.60;;;;;9.80;101193.00;;;;4943694;29;20225;-68
2022/05/13 03:48:13;;;;;;;3.17;2.43;;;;;9.80;101184.00;;;;4949563;29;20746;-68
2022/05/13 03:50:59;;;;;;;3.63;2.57;;;;;9.80;101189.00;;;;4949879;29;20764;-67
2022/05/13 03:53:47;;;;;;;6.23;2.87;;;;;10.00;101190.00;;;;4949454;29;20809;-69
2022/05/13 03:56:33;;;;;;;2.60;2.20;;;;;9.90;101188.00;;;;4944644;29;20358;-69
2022/05/13 03:59:19;;;;;;;4.20;2.50;;;;;9.90;101180.00;;;;4942671;29;20209;-69
2022/05/13 04:02:06;;;;;;;3.00;2.57;;;;;10.00;101185.00;;;;4949195;29;20229;-68
2022/05/13 04:11:07;;;;;;;2.87;2.50;;;;;9.90;101200.00;;;;4949070;29;20220;-69
2022/05/13 04:16:57;;;;;;;4.63;2.50;;;;;10.00;101192.00;;;;4948985;29;20292;-68
2022/05/13 04:19:44;;;;;;;3.10;2.37;;;;;10.10;101205.00;;;;4949561;29;20295;-71
2022/05/13 04:22:31;;;;;;;3.67;2.60;;;;;10.20;101202.00;;;;4945537;29;20231;-74
2022/05/13 04:25:19;;;;;;;4.27;2.40;;;;;10.40;101194.00;;;;4941585;29;20234;-69
2022/05/13 04:28:07;;;;;;;4.33;3.07;;;;;10.40;101188.00;;;;4949078;29;20209;-71
2022/05/13 04:30:53;;;;;;;4.33;2.80;;;;;10.60;101199.00;;;;4949122;29;20957;-69
2022/05/13 04:33:40;;;;;;;2.63;2.13;;;;;10.70;101190.00;;;;4949026;29;20221;-69
2022/05/13 04:36:27;;;;;;;2.30;2.10;;;;;10.70;101204.00;;;;4949333;28;20274;-68
2022/05/13 04:39:13;;;;;;;3.17;2.47;;;;;10.90;101188.00;;;;4948393;29;20221;-67
2022/05/13 04:45:19;;;;;;;3.03;2.37;;;;;11.10;101202.00;;;;4926092;29;20697;-69
2022/05/13 04:48:16;;;;;;;3.70;2.40;;;;;11.20;101211.00;;;;4948358;29;20787;-70
2022/05/13 04:51:03;;;;;;;3.40;2.30;;;;;11.30;101210.00;;;;4948717;29;20303;-69
2022/05/13 04:53:53;;;;;;;4.20;2.70;;;;;11.30;101210.00;;;;4948487;29;20222;-69
2022/05/13 04:56:39;;;;;;;3.87;2.17;;;;;11.30;101209.00;;;;4943726;29;20215;-69
2022/05/13 04:59:25;;;;;;;2.70;2.17;;;;;11.40;101224.00;;;;4948155;29;20267;-68
2022/05/13 05:02:13;;;;;;;5.53;2.43;;;;;11.50;101224.00;;;;4948259;29;20223;-68
2022/05/13 05:04:59;;;;;;;4.20;3.00;;;;;11.50;101227.00;;;;4948410;29;20239;-70
2022/05/13 05:07:45;;;;;;;5.17;2.47;;;;;11.60;101234.00;;;;4949910;28;20756;-71
2022/05/13 05:10:32;;;;;;;4.20;2.43;;;;;11.60;101231.00;;;;4942344;29;20232;-68
2022/05/13 05:13:20;;;;;;;3.93;2.57;;;;;11.90;101230.00;;;;4940877;29;20705;-68
2022/05/13 05:16:07;;;;;;;5.83;2.40;;;;;12.00;101238.00;;;;4948501;29;20224;-68
2022/05/13 05:18:56;;;;;;;7.33;2.67;;;;;12.10;101241.00;;;;4948379;29;20264;-70
2022/05/13 05:21:42;;;;;;;5.20;2.13;;;;;12.20;101236.00;;;;4948110;29;20694;-71
2022/05/13 05:24:28;;;;;;;4.47;2.03;;;;;12.30;101256.00;;;;4941384;29;20263;-69
2022/05/13 05:27:15;;;;;;;7.93;2.50;;;;;12.40;101249.00;;;;4948156;29;20709;-68
2022/05/13 05:30:01;;;;;;;4.20;2.10;;;;;12.50;101250.00;;;;4948265;29;20738;-68
2022/05/13 05:32:47;;;;;;;7.50;2.63;;;;;12.40;101248.00;;;;4948168;29;20215;-68
2022/05/13 05:35:35;;;;;;;3.00;2.40;;;;;12.50;101256.00;;;;4947307;28;20435;-68
2022/05/13 05:38:21;;;;;;;3.87;2.17;;;;;12.50;101257.00;;;;4940327;29;20223;-68
2022/05/13 05:41:08;;;;;;;5.70;2.43;;;;;12.70;101261.00;;;;4946636;29;20212;-68
2022/05/13 05:43:54;;;;;;;2.60;2.07;;;;;12.60;101259.00;;;;4943340;29;20825;-67
2022/05/13 05:46:40;;;;;;;4.37;2.10;;;;;12.70;101254.00;;;;4942873;29;20393;-71
2022/05/13 05:49:26;;;;;;;5.70;2.50;;;;;12.70;101262.00;;;;4941360;29;20207;-67
2022/05/13 05:52:14;;;;;;;8.37;2.93;;;;;12.80;101263.00;;;;4946940;29;20215;-66
2022/05/13 05:58:07;;;;;;;4.37;2.10;;;;;13.00;101267.00;;;;4950945;29;20215;-68
2022/05/13 06:00:53;;;;;;;7.67;2.73;;;;;12.90;101272.00;;;;4950457;29;20987;-68
2022/05/13 06:03:40;;;;;;;7.43;2.53;;;;;13.00;101271.00;;;;4945333;29;20240;-67
2022/05/13 06:06:26;;;;;;;5.57;2.53;;;;;13.10;101280.00;;;;4946950;29;20697;-68
2022/05/13 06:09:14;;;;;;;6.20;2.70;;;;;13.20;101283.00;;;;4950363;29;20215;-68
2022/05/13 06:12:01;;;;;;;4.70;2.60;;;;;13.20;101283.00;;;;4951310;29;20243;-71
2022/05/13 06:14:47;;;;;;;6.93;2.80;;;;;13.10;101290.00;;;;4951462;29;20240;-68
2022/05/13 06:17:33;;;;;;;7.20;2.47;;;;;13.20;101286.00;;;;4945373;29;20623;-68
2022/05/13 06:20:21;;;;;;;5.00;2.30;;;;;13.10;101280.00;;;;4951297;29;20705;-69
2022/05/13 06:23:08;;;;;;;4.93;3.00;;;;;13.20;101293.00;;;;4950924;29;20228;-67
2022/05/13 06:25:56;;;;;;;4.50;2.60;;;;;13.20;101306.00;;;;4951508;29;20315;-68
2022/05/13 06:28:42;;;;;;;5.50;2.70;;;;;13.30;101296.00;;;;4951565;29;20212;-68
2022/05/13 06:31:29;;;;;;;5.00;2.87;;;;;13.40;101297.00;;;;4944679;29;20766;-67
2022/05/13 06:34:16;;;;;;;4.47;2.60;;;;;13.40;101303.00;;;;4950627;29;20336;-69
2022/05/13 06:37:02;;;;;;;9.97;2.93;;;;;13.40;101295.00;;;;4958027;28;20215;-68
2022/05/13 06:39:48;;;;;;;6.53;2.60;;;;;13.50;101313.00;;;;4951048;29;20212;-68
2022/05/13 06:42:36;;;;;;;8.83;2.87;;;;;13.80;101321.00;;;;4942043;29;20596;-70
2022/05/13 06:45:23;;;;;;;6.47;2.70;;;;;14.00;101320.00;;;;4943305;29;20243;-70
2022/05/13 06:48:10;;;;;;;7.77;2.87;;;;;14.30;101323.00;;;;4950775;29;20356;-72
2022/05/13 06:50:56;;;;;;;5.97;3.30;;;;;14.50;101325.00;;;;4951122;29;20216;-69
2022/05/13 06:53:42;;;;;;;4.97;2.70;;;;;14.60;101329.00;;;;4950449;29;20788;-70
2022/05/13 06:56:29;;;;;;;6.90;3.23;;;;;14.60;101336.00;;;;4943591;29;20844;-69
2022/05/13 06:59:16;;;;;;;7.50;2.97;;;;;14.60;101343.00;;;;4950451;29;20224;-69
2022/05/13 07:02:03;;;;;;;12.53;3.50;;;;;14.80;101334.00;;;;4950853;29;20301;-69
2022/05/13 07:04:50;;;;;;;6.30;2.80;;;;;14.90;101336.00;;;;4950396;29;20363;-69
2022/05/13 07:07:36;;;;;;;8.30;2.70;;;;;14.80;101337.00;;;;4952163;28;20224;-69
2022/05/13 07:10:24;;;;;;;5.53;3.00;;;;;15.00;101331.00;;;;4950348;29;20299;-69
2022/05/13 07:13:12;;;;;;;5.17;2.60;;;;;15.10;101337.00;;;;4950402;29;20263;-69
2022/05/13 07:16:00;;;;;;;6.27;2.60;;;;;15.30;101336.00;;;;4951035;29;20721;-69
2022/05/13 07:18:47;;;;;;;3.67;2.33;;;;;15.30;101337.00;;;;4950663;29;20283;-70
2022/05/13 07:21:34;;;;;;;7.00;2.67;;;;;15.40;101333.00;;;;4950919;29;20299;-69
2022/05/13 07:24:21;;;;;;;5.87;2.70;;;;;15.30;101330.00;;;;4949932;29;20615;-70
2022/05/13 07:27:10;;;;;;;7.00;2.90;;;;;15.40;101339.00;;;;4950386;29;20267;-70
2022/05/13 07:29:56;;;;;;;6.60;2.90;;;;;15.30;101333.00;;;;4950861;29;20923;-70
2022/05/13 07:32:48;;;;;;;5.63;2.47;;;;;15.40;101332.00;;;;4950114;29;20212;-69
2022/05/13 07:35:35;;;;;;;4.73;2.40;;;;;15.60;101336.00;;;;4943655;28;20863;-70
2022/05/13 07:38:21;;;;;;;9.47;2.70;;;;;15.70;101339.00;;;;4948125;29;20222;-70
2022/05/13 07:41:19;;;;;;;5.13;2.83;;;;;15.80;101342.00;;;;4947957;29;20224;-71
2022/05/13 07:44:06;;;;;;;5.60;2.67;;;;;15.90;101355.00;;;;4947634;29;20230;-69
2022/05/13 07:46:52;;;;;;;8.13;2.60;;;;;16.00;101347.00;;;;4948664;29;20357;-70
2022/05/13 07:49:42;;;;;;;6.87;2.30;;;;;16.00;101345.00;;;;4945139;29;20699;-69
2022/05/13 07:52:29;;;;;;;10.93;2.60;;;;;16.10;101337.00;;;;4948967;29;20318;-69
2022/05/13 07:55:15;;;;;;;3.60;2.10;;;;;16.30;101340.00;;;;4949107;29;20311;-69
2022/05/13 07:58:01;;;;;;;8.00;2.50;;;;;16.40;101336.00;;;;4948888;29;20211;-70
2022/05/13 08:00:48;;;;;;;4.63;2.50;;;;;16.50;101348.00;;;;4949428;29;20351;-70
2022/05/13 08:03:34;;;;;;;6.13;2.23;;;;;16.70;101352.00;;;;4948844;29;20282;-70
2022/05/13 08:06:22;;;;;;;5.27;2.30;;;;;16.50;101352.00;;;;4949882;29;20739;-69
2022/05/13 08:09:09;;;;;;;5.10;2.07;;;;;16.80;101358.00;;;;4947331;29;20266;-68
2022/05/13 08:11:55;;;;;;;4.97;2.13;;;;;16.80;101364.00;;;;4949783;29;20211;-68
2022/05/13 08:14:42;;;;;;;5.00;2.60;;;;;17.10;101360.00;;;;4950024;29;20236;-69
2022/05/13 08:17:33;;;;;;;8.23;2.80;;;;;17.10;101368.00;;;;4949700;28;20807;-66
2022/05/13 08:20:19;;;;;;;7.00;2.30;;;;;16.90;101366.00;;;;4949650;29;20223;-68
2022/05/13 08:23:06;;;;;;;5.70;2.20;;;;;17.00;101359.00;;;;4949296;29;20368;-69
2022/05/13 08:25:53;;;;;;;4.63;2.47;;;;;17.10;101363.00;;;;4949316;29;20240;-69
2022/05/13 08:28:40;;;;;;;4.37;2.40;;;;;17.20;101358.00;;;;4949633;29;20668;-68
2022/05/13 08:31:26;;;;;;;3.50;2.07;;;;;17.00;101363.00;;;;4949364;29;20576;-69
2022/05/13 08:34:14;;;;;;;4.90;2.20;;;;;17.10;101369.00;;;;4948722;29;20256;-69
2022/05/13 08:37:01;;;;;;;4.03;2.43;;;;;17.20;101365.00;;;;4949410;29;20913;-68
2022/05/13 08:39:48;;;;;;;5.43;2.20;;;;;17.30;101362.00;;;;4943825;29;20215;-69
2022/05/13 08:42:42;;;;;;;5.80;2.50;;;;;17.30;101355.00;;;;4949205;29;20259;-65
2022/05/13 08:45:29;;;;;;;8.40;3.27;;;;;17.30;101363.00;;;;4949319;29;20601;-69
2022/05/13 08:48:20;;;;;;;10.37;3.00;;;;;17.40;101366.00;;;;4948920;29;20348;-69
2022/05/13 08:51:13;;;;;;;7.83;3.30;;;;;17.20;101375.00;;;;4948682;29;20324;-69
2022/05/13 08:54:07;;;;;;;8.47;3.03;;;;;17.20;101384.00;;;;4949051;29;20217;-69
2022/05/13 08:57:00;;;;;;;9.67;4.27;;;;;17.30;101383.00;;;;4944485;29;20306;-70
2022/05/13 08:59:51;;;;;;;6.07;3.00;;;;;17.60;101376.00;;;;4949187;29;20344;-69
2022/05/13 09:02:39;;;;;;;4.23;2.93;;;;;17.90;101370.00;;;;4942002;29;20211;-69
2022/05/13 09:05:29;;;;;;;8.93;2.90;;;;;18.10;101374.00;;;;4948722;29;20822;-67
2022/05/13 09:08:15;;;;;;;4.57;3.00;;;;;18.40;101368.00;;;;4951553;28;20216;-68
2022/05/13 09:11:14;;;;;;;5.77;3.00;;;;;18.30;101377.00;;;;4949083;29;20204;-69
2022/05/13 09:14:08;;;;;;;5.37;3.20;;;;;18.80;101371.00;;;;4948642;29;20232;-70
2022/05/13 09:17:08;;;;;;;6.97;3.00;;;;;18.70;101377.00;;;;4944144;29;20224;-67
2022/05/13 09:19:59;;;;;;;5.93;3.00;;;;;18.70;101380.00;;;;4948895;29;20216;-70
2022/05/13 09:22:49;;;;;;;5.47;3.03;;;;;18.80;101382.00;;;;4940254;29;20710;-68
2022/05/13 09:25:40;;;;;;;5.70;3.20;;;;;18.60;101377.00;;;;4941129;29;20315;-70
2022/05/13 09:28:27;;;;;;;6.40;3.60;;;;;18.30;101374.00;;;;4948582;29;20227;-70
2022/05/13 09:31:22;;;;;;;4.30;3.17;;;;;18.30;101378.00;;;;4948525;29;20291;-69
2022/05/13 09:34:34;;;;;;;11.47;3.07;;;;;18.60;101388.00;;;;4948219;29;20247;-68
2022/05/13 09:37:22;;;;;;;8.47;3.50;;;;;18.60;101383.00;;;;4949582;28;20317;-68
2022/05/13 09:40:12;;;;;;;8.97;3.33;;;;;18.20;101395.00;;;;4948459;29;20947;-69
2022/05/13 09:42:59;;;;;;;5.50;3.50;;;;;17.90;101393.00;;;;4948469;29;20220;-69
2022/05/13 09:45:45;;;;;;;6.60;3.37;;;;;18.00;101390.00;;;;4942344;29;20311;-69
2022/05/13 09:48:36;;;;;;;7.27;3.23;;;;;17.90;101387.00;;;;4948313;29;20341;-68
2022/05/13 09:51:26;;;;;;;5.27;3.50;;;;;18.30;101387.00;;;;4948414;29;20352;-68
2022/05/13 09:54:15;;;;;;;7.33;3.93;;;;;18.80;101389.00;;;;4947991;29;20319;-71
2022/05/13 09:57:09;;;;;;;9.53;3.77;;;;;18.80;101385.00;;;;4948530;29;20200;-68
2022/05/13 09:59:59;;;;;;;6.10;3.10;;;;;18.80;101386.00;;;;4943507;29;20220;-69
2022/05/13 10:02:48;;;;;;;5.67;3.30;;;;;18.70;101388.00;;;;4947980;29;20213;-69
2022/05/13 10:05:37;;;;;;;8.03;3.50;;;;;18.60;101382.00;;;;4940583;29;20288;-68
2022/05/13 10:08:27;;;;;;;4.80;3.20;;;;;18.50;101389.00;;;;4951680;28;20322;-68
2022/05/13 10:14:29;;;;;;;3.70;3.10;;;;;18.30;101382.00;;;;4946083;29;20235;-68
2022/05/13 10:17:25;;;;;;;7.10;3.50;;;;;18.40;101397.00;;;;4947909;29;20243;-68
2022/05/13 10:20:25;;;;;;;10.60;3.10;;;;;18.50;101390.00;;;;4944435;29;20221;-69
2022/05/13 10:23:18;;;;;;;3.30;2.67;;;;;18.50;101390.00;;;;4944539;29;20894;-69
2022/05/13 10:26:09;;;;;;;4.33;2.93;;;;;18.40;101393.00;;;;4944282;29;20304;-68
2022/05/13 10:29:05;;;;;;;5.10;3.33;;;;;18.30;101390.00;;;;4940523;29;20209;-69
2022/05/13 10:31:54;;;;;;;6.27;3.57;;;;;18.20;101378.00;;;;4945194;29;20292;-69
2022/05/13 10:34:47;;;;;;;6.57;3.70;;;;;17.90;101396.00;;;;4938795;29;20283;-70
2022/05/13 10:37:51;;;;;;;5.93;3.60;;;;;17.90;101401.00;;;;4946753;29;20208;-68
2022/05/13 10:40:43;;;;;;;4.90;3.70;;;;;18.20;101386.00;;;;4939540;28;20208;-68
2022/05/13 10:43:38;;;;;;;7.23;4.03;;;;;18.50;101400.00;;;;4951040;29;20227;-69
2022/05/13 10:46:27;;;;;;;6.70;3.93;;;;;18.80;101403.00;;;;4950989;29;20335;-70
2022/05/13 10:49:36;;;;;;;6.20;3.80;;;;;18.80;101405.00;;;;4951114;29;20266;-68
2022/05/13 10:52:39;;;;;;;6.33;3.53;;;;;18.70;101406.00;;;;4951168;29;20879;-68
2022/05/13 10:55:34;;;;;;;4.00;3.47;;;;;19.00;101412.00;;;;4947862;29;20240;-71
2022/05/13 10:58:33;;;;;;;4.27;3.50;;;;;19.20;101412.00;;;;4950900;29;20806;-70
2022/05/13 11:01:39;;;;;;;8.27;3.50;;;;;19.50;101399.00;;;;4951196;29;20693;-69
2022/05/13 11:04:34;;;;;;;8.97;3.57;;;;;19.50;101415.00;;;;4950676;29;20726;-69
2022/05/13 11:07:28;;;;;;;4.87;3.30;;;;;20.00;101409.00;;;;4955653;28;20236;-69
2022/05/13 11:10:23;;;;;;;5.57;3.80;;;;;20.00;101407.00;;;;4950569;29;20271;-68
2022/05/13 11:13:20;;;;;;;6.57;3.70;;;;;20.10;101409.00;;;;4951059;29;20311;-69
2022/05/13 11:16:16;;;;;;;6.93;4.00;;;;;20.30;101405.00;;;;4951305;29;20311;-66
2022/05/13 11:19:08;;;;;;;5.87;3.50;;;;;20.70;101411.00;;;;4951113;29;20692;-67
2022/05/13 11:22:02;;;;;;;6.10;3.67;;;;;204.60;224519.00;;;;4945667;29;20220;-68
2022/05/13 11:28:43;;;;;;;3.63;3.20;;;;;204.60;224519.00;;;;4949245;29;20685;-68
2022/05/13 11:32:01;;;;;;;4.17;3.77;;;;;204.60;224519.00;;;;4950428;29;20784;-68
2022/05/13 11:35:07;;;;;;;6.53;3.63;;;;;204.60;224519.00;;;;4943998;29;20228;-69
2022/05/13 11:38:00;;;;;;;4.50;3.27;;;;;204.60;224519.00;;;;4950935;29;20208;-69
2022/05/13 11:40:51;;;;;;;6.13;3.67;;;;;204.60;224519.00;;;;4943945;29;20681;-69
2022/05/13 11:44:01;;;;;;;6.07;3.53;;;;;20.70;224519.00;;;;4944422;29;20676;-69
2022/05/13 11:46:55;;;;;;;3.63;3.30;;;;;21.60;101401.00;;;;4943285;29;20231;-69
2022/05/13 11:49:44;;;;;;;5.93;3.17;;;;;21.20;101426.00;;;;4950624;29;20928;-69
2022/05/13 11:52:46;;;;;;;4.50;3.00;;;;;20.90;101419.00;;;;4948488;28;20216;-68
2022/05/13 11:55:49;;;;;;;4.97;3.23;;;;;21.00;101428.00;;;;4949902;29;20243;-68
2022/05/13 11:58:49;;;;;;;7.53;2.90;;;;;21.50;101432.00;;;;4948763;29;20288;-68
2022/05/13 12:02:12;;;;;;;6.47;3.60;;;;;21.40;101430.00;;;;4948509;29;20844;-69
2022/05/13 12:05:08;;;;;;;6.20;3.90;;;;;21.50;101415.00;;;;4948452;29;20232;-67
2022/05/13 12:08:03;;;;;;;7.00;3.83;;;;;21.20;101423.00;;;;4953839;28;20407;-67
2022/05/13 12:11:04;;;;;;;3.97;3.13;;;;;21.10;101430.00;;;;4949787;29;20347;-68
2022/05/13 12:14:02;;;;;;;5.23;3.47;;;;;21.70;101435.00;;;;4949668;29;20281;-68
2022/05/13 12:16:55;;;;;;;4.27;2.90;;;;;22.00;101420.00;;;;4949971;29;20313;-68
2022/05/13 12:19:53;;;;;;;5.60;3.33;;;;;22.50;101419.00;;;;4941763;29;20221;-67
2022/05/13 12:22:53;;;;;;;4.93;3.47;;;;;21.90;101424.00;;;;4949341;29;20314;-68
2022/05/13 12:25:49;;;;;;;7.30;3.97;;;;;22.20;101430.00;;;;4949601;29;20238;-67
2022/05/13 12:28:42;;;;;;;6.20;3.83;;;;;22.60;101411.00;;;;4949673;29;20213;-68
2022/05/13 12:31:47;;;;;;;8.23;4.10;;;;;22.40;101415.00;;;;4949053;29;20217;-68
2022/05/13 12:38:06;;;;;;;3.77;3.43;;;;;21.40;101421.00;;;;4910134;28;20216;-68
2022/05/13 12:40:59;;;;;;;6.37;3.93;;;;;21.60;101416.00;;;;4943048;29;20336;-68
2022/05/13 12:43:54;;;;;;;7.27;3.43;;;;;21.60;101424.00;;;;4941925;29;20825;-66
2022/05/13 12:46:45;;;;;;;4.60;3.47;;;;;22.30;101415.00;;;;4949314;29;20232;-68
2022/05/13 12:49:54;;;;;;;6.90;3.53;;;;;204.60;224519.00;;;;4949498;29;20590;-68
2022/05/13 12:52:44;;;;;;;4.30;2.80;;;;;204.60;224519.00;;;;4949061;29;20736;-69
2022/05/13 12:55:31;;;;;;;5.37;3.10;;;;;204.60;224519.00;;;;4947662;29;20738;-66
2022/05/13 12:58:19;;;;;;;7.73;3.30;;;;;204.60;224519.00;;;;4949109;29;20292;-68
2022/05/13 13:01:06;;;;;;;4.83;3.60;;;;;204.60;224519.00;;;;4949180;29;20219;-69
2022/05/13 13:03:52;;;;;;;6.57;3.43;;;;;204.60;224519.00;;;;4941588;28;20341;-67
2022/05/13 13:06:43;;;;;;;5.70;3.53;;;;;204.60;224519.00;;;;4949068;29;20238;-69
2022/05/13 13:09:33;;;;;;;8.77;3.73;;;;;204.60;224519.00;;;;4947543;29;20807;-70
2022/05/13 13:12:28;;;;;;;6.80;4.77;;;;;204.60;224519.00;;;;4949098;29;20868;-69
2022/05/13 13:15:39;;;;;;;11.00;4.23;;;;;22.90;101246.00;;;;4948795;29;20234;-69
2022/05/13 13:18:30;;;;;;;7.87;4.07;;;;;22.90;101414.00;;;;4948904;29;20266;-68
2022/05/13 13:21:16;;;;;;;6.43;3.37;;;;;22.50;101406.00;;;;4949097;29;20312;-69
2022/05/13 13:24:12;;;;;;;4.47;3.43;;;;;22.60;101394.00;;;;4948356;29;20206;-67
2022/05/13 13:26:59;;;;;;;4.23;3.27;;;;;22.50;101421.00;;;;4942955;29;20235;-67
2022/05/13 13:29:48;;;;;;;3.97;3.03;;;;;22.10;101413.00;;;;4948921;29;20217;-69
2022/05/13 13:32:35;;;;;;;4.53;2.90;;;;;22.30;101415.00;;;;4948810;29;20222;-68
2022/05/13 13:35:30;;;;;;;3.70;2.93;;;;;22.60;101428.00;;;;4951407;28;20226;-68
2022/05/13 13:38:18;;;;;;;10.03;4.40;;;;;23.20;101425.00;;;;4948916;29;20218;-69
2022/05/13 13:41:06;;;;;;;5.80;3.57;;;;;22.40;101412.00;;;;4943779;29;20215;-67
2022/05/13 13:43:56;;;;;;;7.60;3.37;;;;;22.60;101417.00;;;;4942022;29;20218;-69
2022/05/13 13:46:47;;;;;;;4.37;3.40;;;;;23.60;101415.00;;;;4948904;29;20364;-68
2022/05/13 13:49:36;;;;;;;6.00;3.93;;;;;23.70;101408.00;;;;4948943;29;20212;-68
2022/05/13 13:52:26;;;;;;;4.67;3.73;;;;;23.20;101416.00;;;;4948963;29;20223;-68
2022/05/13 13:55:20;;;;;;;5.07;3.97;;;;;23.10;101406.00;;;;4948999;29;20247;-68
2022/05/13 13:58:27;;;;;;;5.97;4.27;;;;;23.70;101406.00;;;;4948769;29;20223;-68
2022/05/13 14:01:23;;;;;;;9.20;4.33;;;;;23.90;101421.00;;;;4945195;29;20243;-68
2022/05/13 14:04:13;;;;;;;9.93;4.67;;;;;24.30;101287.00;;;;4943532;29;20899;-69
2022/05/13 14:07:01;;;;;;;12.17;4.73;;;;;24.30;101406.00;;;;4944703;28;20300;-68
2022/05/13 14:09:49;;;;;;;7.53;5.33;;;;;24.10;101408.00;;;;4940616;29;20563;-68
2022/05/13 14:12:38;;;;;;;5.80;4.50;;;;;23.60;101404.00;;;;4948667;29;20657;-68
2022/05/13 14:15:30;;;;;;;7.70;5.67;;;;;23.60;101412.00;;;;4949370;28;20288;-69
2022/05/13 14:18:21;;;;;;;5.40;4.60;;;;;23.50;101403.00;;;;4952677;29;20271;-68
2022/05/13 14:21:13;;;;;;;7.23;4.77;;;;;23.40;101408.00;;;;4952384;29;20208;-69
2022/05/13 14:24:01;;;;;;;7.20;4.43;;;;;24.20;101410.00;;;;4945667;29;20244;-67
2022/05/13 14:26:50;;;;;;;8.43;4.17;;;;;24.40;101412.00;;;;4944250;29;20299;-67
2022/05/13 14:29:37;;;;;;;6.80;4.00;;;;;24.80;101402.00;;;;4951424;29;20268;-68
2022/05/13 14:32:33;;;;;;;5.27;4.30;;;;;24.80;101395.00;;;;4951634;29;20228;-68